Time;durP1;ratioP1;P1;durP2;ratioP2;P2;SDS_P1;SDS_P2;PMS_P1;PMS_P2;Temp;Humidity;BMP_temperature;BMP_pressure;BME280_temperature;BME280_humidity;BME280_pressure;Samples;Min_cycle;Max_cycle;Signal;HPM_P1;HPM_P2
2021/09/18 00:01:43;;;;;;;29.35;20.42;;;15.90;99.90;;;;;;5032496;28;20474;-85
2021/09/18 00:04:09;;;;;;;29.80;20.65;;;15.90;99.90;;;;;;5014738;28;20028;-85
2021/09/18 00:06:35;;;;;;;28.67;20.48;;;15.90;99.90;;;;;;5032345;28;20026;-85
2021/09/18 00:09:01;;;;;;;26.88;19.65;;;15.80;99.90;;;;;;5014517;28;20036;-85
2021/09/18 00:11:27;;;;;;;28.15;20.00;;;15.90;99.90;;;;;;5032505;28;20105;-85
2021/09/18 00:13:52;;;;;;;29.55;22.25;;;15.80;99.90;;;;;;5031152;28;20086;-85
2021/09/18 00:16:18;;;;;;;30.35;22.25;;;15.80;99.90;;;;;;5014645;28;20028;-85
2021/09/18 00:18:44;;;;;;;31.85;21.52;;;15.80;99.90;;;;;;5014654;28;20025;-85
2021/09/18 00:21:10;;;;;;;32.17;22.55;;;15.80;99.90;;;;;;5032299;28;20036;-85
2021/09/18 00:23:35;;;;;;;31.20;22.20;;;15.80;99.90;;;;;;5014859;28;20113;-85
2021/09/18 00:26:01;;;;;;;31.70;22.48;;;15.80;99.90;;;;;;5014663;28;20030;-85
2021/09/18 00:28:27;;;;;;;29.40;21.42;;;15.80;99.90;;;;;;5014459;28;20030;-86
2021/09/18 00:30:53;;;;;;;30.08;22.02;;;15.80;99.90;;;;;;5030809;28;20033;-85
2021/09/18 00:33:19;;;;;;;31.65;22.45;;;15.80;99.90;;;;;;5014479;28;20021;-85
2021/09/18 00:35:45;;;;;;;31.63;22.08;;;15.70;99.90;;;;;;5032228;28;20079;-85
2021/09/18 00:38:10;;;;;;;33.75;22.60;;;15.80;99.90;;;;;;5030943;28;20025;-85
2021/09/18 00:40:36;;;;;;;31.38;22.23;;;15.80;99.90;;;;;;5030662;28;20029;-85
2021/09/18 00:43:02;;;;;;;31.63;22.73;;;15.80;99.90;;;;;;5030792;28;20022;-85
2021/09/18 00:45:27;;;;;;;34.53;23.00;;;15.70;99.90;;;;;;5014407;28;20029;-84
2021/09/18 00:47:53;;;;;;;34.40;23.40;;;15.70;99.90;;;;;;5014031;28;20090;-85
2021/09/18 00:50:19;;;;;;;35.38;23.25;;;15.70;99.90;;;;;;5014239;28;20026;-85
2021/09/18 00:52:44;;;;;;;33.17;22.90;;;15.70;99.90;;;;;;5014104;28;20017;-85
2021/09/18 00:55:12;;;;;;;32.13;23.48;;;15.70;99.90;;;;;;5014272;28;20113;-86
2021/09/18 00:57:39;;;;;;;33.55;22.08;;;15.60;99.90;;;;;;5014207;28;20482;-85
2021/09/18 01:00:05;;;;;;;33.35;23.13;;;15.60;99.90;;;;;;5013937;28;20100;-85
2021/09/18 01:02:31;;;;;;;31.52;22.67;;;15.60;99.90;;;;;;5017401;28;20030;-85
2021/09/18 01:04:57;;;;;;;34.20;23.42;;;15.60;99.90;;;;;;5017920;28;20394;-85
2021/09/18 01:07:23;;;;;;;33.63;23.45;;;15.60;99.90;;;;;;5017867;28;20037;-85
2021/09/18 01:09:50;;;;;;;34.03;22.30;;;15.70;99.90;;;;;;5017412;28;20025;-85
2021/09/18 01:12:16;;;;;;;32.53;23.70;;;15.60;99.90;;;;;;5017798;28;20022;-85
2021/09/18 01:14:46;;;;;;;33.45;23.52;;;15.60;99.90;;;;;;5035384;28;20021;-85
2021/09/18 01:17:13;;;;;;;34.85;24.13;;;15.60;99.90;;;;;;5017616;28;20026;-85
2021/09/18 01:19:38;;;;;;;33.38;23.90;;;15.60;99.90;;;;;;5017502;28;20033;-85
2021/09/18 01:22:07;;;;;;;34.47;23.00;;;15.50;99.90;;;;;;5035463;28;20029;-85
2021/09/18 01:24:33;;;;;;;36.05;25.90;;;15.50;99.90;;;;;;5017822;28;20116;-85
2021/09/18 01:26:59;;;;;;;37.42;24.85;;;15.50;99.90;;;;;;5035265;28;20029;-85
2021/09/18 01:29:25;;;;;;;36.25;24.58;;;15.50;99.90;;;;;;5017198;28;20090;-85
2021/09/18 01:31:51;;;;;;;36.60;25.45;;;15.50;99.90;;;;;;5034141;28;20436;-85
2021/09/18 01:34:21;;;;;;;35.45;24.88;;;15.50;99.90;;;;;;5017876;28;20026;-85
2021/09/18 01:36:49;;;;;;;34.20;24.05;;;15.50;99.90;;;;;;5017762;28;20061;-85
2021/09/18 01:39:15;;;;;;;38.70;26.20;;;15.60;99.90;;;;;;5035309;28;20029;-85
2021/09/18 01:41:46;;;;;;;39.95;27.67;;;15.60;99.90;;;;;;5017403;28;20401;-85
2021/09/18 01:44:16;;;;;;;33.85;25.08;;;15.60;99.90;;;;;;5033866;28;20099;-85
2021/09/18 01:46:42;;;;;;;37.08;24.30;;;15.50;99.90;;;;;;5017065;28;20037;-85
2021/09/18 01:49:18;;;;;;;35.00;25.25;;;15.50;99.90;;;;;;5016849;28;20371;-85
2021/09/18 01:51:56;;;;;;;41.95;27.02;;;15.50;99.90;;;;;;5033609;28;20017;-85
2021/09/18 01:54:21;;;;;;;39.47;26.92;;;15.40;99.90;;;;;;5017090;28;20026;-85
2021/09/18 01:56:47;;;;;;;36.85;25.25;;;15.50;99.90;;;;;;5017103;28;20017;-85
2021/09/18 01:59:13;;;;;;;38.33;25.92;;;15.40;99.90;;;;;;5016779;28;20033;-85
2021/09/18 02:01:38;;;;;;;38.70;26.00;;;15.40;99.90;;;;;;5033334;28;20083;-84
2021/09/18 02:04:04;;;;;;;34.55;24.70;;;15.40;99.90;;;;;;5016803;28;20033;-85
2021/09/18 02:06:29;;;;;;;37.95;26.02;;;15.50;99.90;;;;;;5033468;28;20684;-85
2021/09/18 02:08:55;;;;;;;36.72;25.92;;;15.40;99.90;;;;;;5033274;28;20041;-84
2021/09/18 02:11:21;;;;;;;35.97;25.38;;;15.40;99.90;;;;;;5016471;28;20493;-85
2021/09/18 02:13:46;;;;;;;36.63;25.80;;;15.40;99.90;;;;;;5033016;28;20135;-85
2021/09/18 02:16:12;;;;;;;39.60;27.33;;;15.40;99.90;;;;;;5016522;28;20025;-86
2021/09/18 02:18:38;;;;;;;45.70;29.58;;;15.40;99.90;;;;;;5016605;28;20078;-85
2021/09/18 02:21:04;;;;;;;40.47;28.35;;;15.40;99.90;;;;;;5032486;28;20398;-85
2021/09/18 02:23:30;;;;;;;43.28;29.63;;;15.40;99.90;;;;;;5016324;28;20037;-85
2021/09/18 02:25:55;;;;;;;42.80;29.98;;;15.40;99.90;;;;;;5033971;28;20026;-85
2021/09/18 02:28:22;;;;;;;45.70;31.13;;;15.30;99.90;;;;;;5016490;28;20543;-86
2021/09/18 02:30:47;;;;;;;46.20;32.33;;;15.30;99.90;;;;;;5015568;28;20103;-85
2021/09/18 02:33:13;;;;;;;47.25;31.85;;;15.30;99.90;;;;;;5016291;28;20025;-86
2021/09/18 02:35:38;;;;;;;48.53;31.63;;;15.20;99.90;;;;;;5034037;28;20022;-86
2021/09/18 02:38:05;;;;;;;45.08;30.23;;;15.20;99.90;;;;;;5016151;28;20148;-86
2021/09/18 02:40:32;;;;;;;45.80;30.05;;;15.20;99.90;;;;;;5015406;28;20449;-84
2021/09/18 02:43:00;;;;;;;42.67;29.15;;;15.20;99.90;;;;;;5015942;28;20135;-85
2021/09/18 02:45:26;;;;;;;43.38;30.90;;;15.20;99.90;;;;;;5033808;28;20032;-85
2021/09/18 02:47:52;;;;;;;46.45;31.30;;;15.20;99.90;;;;;;5033553;28;20087;-84
2021/09/18 02:50:19;;;;;;;50.67;32.67;;;15.20;99.90;;;;;;5033146;28;20033;-86
2021/09/18 02:52:46;;;;;;;43.90;29.23;;;15.20;99.90;;;;;;5016282;28;20021;-86
2021/09/18 02:55:12;;;;;;;46.70;31.00;;;15.10;99.90;;;;;;5033814;28;20026;-84
2021/09/18 02:57:38;;;;;;;45.63;30.88;;;15.20;99.90;;;;;;5016110;28;20104;-85
2021/09/18 03:00:06;;;;;;;44.00;29.30;;;15.10;99.90;;;;;;5015181;28;20456;-84
2021/09/18 03:02:31;;;;;;;41.08;27.17;;;15.10;99.90;;;;;;5015668;28;20112;-85
2021/09/18 03:04:57;;;;;;;43.58;30.23;;;15.10;99.90;;;;;;5033525;28;20029;-85
2021/09/18 03:07:23;;;;;;;46.50;29.60;;;15.10;99.90;;;;;;5016026;28;20474;-86
2021/09/18 03:09:48;;;;;;;43.22;29.67;;;15.10;99.90;;;;;;5033116;28;20116;-87
2021/09/18 03:12:14;;;;;;;45.47;29.63;;;15.10;99.90;;;;;;5015353;28;20112;-83
2021/09/18 03:14:40;;;;;;;46.53;30.30;;;15.10;99.90;;;;;;5033066;28;20029;-85
2021/09/18 03:17:05;;;;;;;52.05;31.42;;;15.10;99.90;;;;;;5015595;28;20536;-86
2021/09/18 03:19:31;;;;;;;49.80;31.38;;;15.10;99.90;;;;;;5032635;28;20033;-85
2021/09/18 03:21:57;;;;;;;48.65;32.25;;;15.00;99.90;;;;;;5015670;28;20032;-85
2021/09/18 03:24:22;;;;;;;45.95;30.25;;;15.00;99.90;;;;;;5014627;28;20033;-86
2021/09/18 03:26:48;;;;;;;44.00;29.73;;;15.00;99.90;;;;;;5033334;28;20390;-85
2021/09/18 03:29:13;;;;;;;47.80;30.38;;;14.90;99.90;;;;;;5032607;28;20048;-85
2021/09/18 03:31:40;;;;;;;42.45;28.48;;;14.90;99.90;;;;;;5033433;28;20022;-84
2021/09/18 03:34:06;;;;;;;42.00;28.73;;;15.00;99.90;;;;;;5006687;28;20021;-86
2021/09/18 03:36:32;;;;;;;41.90;29.58;;;15.00;99.90;;;;;;5020220;28;20382;-86
2021/09/18 03:38:57;;;;;;;40.42;27.80;;;14.90;99.90;;;;;;4992847;28;20034;-87
2021/09/18 03:41:23;;;;;;;43.70;29.10;;;14.90;99.90;;;;;;5010998;28;20097;-85
2021/09/18 03:43:49;;;;;;;42.33;30.05;;;14.90;99.90;;;;;;5030881;28;20029;-85
2021/09/18 03:46:14;;;;;;;47.55;31.70;;;14.90;99.90;;;;;;5030400;28;20038;-85
2021/09/18 03:48:40;;;;;;;47.38;31.42;;;14.90;99.90;;;;;;5012509;28;20033;-85
2021/09/18 03:51:06;;;;;;;44.53;30.80;;;14.90;99.90;;;;;;5029852;28;20174;-86
2021/09/18 03:53:32;;;;;;;47.72;31.48;;;14.90;99.90;;;;;;5030507;28;20040;-85
2021/09/18 03:55:59;;;;;;;51.28;34.90;;;14.90;99.90;;;;;;5012584;28;20036;-87
2021/09/18 03:58:24;;;;;;;51.28;33.88;;;14.90;99.90;;;;;;5001025;28;20542;-85
2021/09/18 04:00:51;;;;;;;47.97;32.90;;;14.90;99.90;;;;;;4992242;28;20120;-85
2021/09/18 04:03:16;;;;;;;50.05;33.25;;;15.00;99.90;;;;;;4992939;28;20344;-86
2021/09/18 04:05:42;;;;;;;49.92;35.15;;;14.90;99.90;;;;;;4992536;28;20044;-86
2021/09/18 04:08:09;;;;;;;47.05;32.85;;;14.90;99.90;;;;;;4992832;28;20062;-85
2021/09/18 04:10:36;;;;;;;52.60;34.67;;;15.00;99.90;;;;;;4991980;28;20034;-86
2021/09/18 04:13:02;;;;;;;48.53;32.67;;;15.00;99.90;;;;;;4993017;28;20053;-85
2021/09/18 04:15:28;;;;;;;49.63;32.95;;;14.90;99.90;;;;;;5010688;28;20045;-85
2021/09/18 04:17:54;;;;;;;45.90;31.67;;;14.90;99.90;;;;;;4992899;28;20053;-86
2021/09/18 04:20:20;;;;;;;53.17;34.97;;;14.90;99.90;;;;;;4992586;28;20026;-85
2021/09/18 04:22:45;;;;;;;51.55;33.58;;;14.90;99.90;;;;;;4993232;28;20034;-85
2021/09/18 04:25:11;;;;;;;50.75;32.72;;;14.90;99.90;;;;;;4993012;28;20033;-86
2021/09/18 04:27:37;;;;;;;47.05;31.13;;;14.90;99.90;;;;;;4993354;28;20132;-86
2021/09/18 04:30:04;;;;;;;46.13;32.35;;;14.80;99.90;;;;;;4992573;28;20038;-86
2021/09/18 04:32:30;;;;;;;53.97;35.38;;;14.90;99.90;;;;;;4993185;28;20329;-85
2021/09/18 04:34:55;;;;;;;51.42;33.28;;;14.80;99.90;;;;;;4993261;28;20026;-85
2021/09/18 04:37:21;;;;;;;57.15;35.85;;;14.90;99.90;;;;;;4997108;28;20041;-86
2021/09/18 04:39:47;;;;;;;51.35;34.08;;;14.80;99.90;;;;;;4996027;28;20030;-86
2021/09/18 04:42:12;;;;;;;50.55;32.80;;;14.90;99.90;;;;;;4996866;28;20025;-85
2021/09/18 04:44:38;;;;;;;54.03;35.70;;;14.90;99.90;;;;;;4996880;28;20116;-85
2021/09/18 04:47:03;;;;;;;50.33;33.78;;;14.80;99.90;;;;;;4997032;28;20074;-86
2021/09/18 04:49:29;;;;;;;52.85;35.65;;;14.80;99.90;;;;;;4996349;28;20026;-87
2021/09/18 04:51:55;;;;;;;55.03;36.88;;;14.90;99.90;;;;;;4996991;28;20083;-85
2021/09/18 04:54:20;;;;;;;53.00;35.78;;;14.80;99.90;;;;;;5016934;28;20088;-85
2021/09/18 04:56:46;;;;;;;56.00;36.90;;;14.80;99.90;;;;;;5019707;28;20025;-86
2021/09/18 04:59:12;;;;;;;55.33;37.42;;;14.80;99.90;;;;;;5014933;28;20095;-86
2021/09/18 05:01:37;;;;;;;59.58;37.17;;;14.80;99.90;;;;;;5034077;28;20081;-85
2021/09/18 05:04:03;;;;;;;54.22;36.70;;;14.70;99.90;;;;;;5015668;28;20120;-85
2021/09/18 05:06:29;;;;;;;51.47;35.58;;;14.70;99.90;;;;;;5015990;28;20045;-85
2021/09/18 05:08:54;;;;;;;54.45;36.45;;;14.70;99.90;;;;;;5001799;28;20117;-85
2021/09/18 05:11:20;;;;;;;52.95;36.47;;;14.70;99.90;;;;;;5014175;28;20061;-84
2021/09/18 05:13:46;;;;;;;55.67;36.35;;;14.70;99.90;;;;;;5013890;28;20109;-88
2021/09/18 05:16:11;;;;;;;53.65;36.65;;;14.60;99.90;;;;;;5014381;28;20485;-85
2021/09/18 05:18:37;;;;;;;53.70;35.13;;;14.60;99.90;;;;;;4996397;28;20022;-85
2021/09/18 05:21:03;;;;;;;53.13;36.38;;;14.60;99.90;;;;;;4995990;28;20025;-85
2021/09/18 05:23:28;;;;;;;53.90;36.33;;;14.60;99.90;;;;;;5017029;28;20037;-85
2021/09/18 05:25:54;;;;;;;56.97;37.10;;;14.60;99.90;;;;;;5012187;28;20065;-90
2021/09/18 05:28:20;;;;;;;52.88;36.13;;;14.60;99.90;;;;;;4996541;28;20167;-85
2021/09/18 05:30:45;;;;;;;51.25;35.70;;;14.60;99.90;;;;;;4995928;28;20034;-86
2021/09/18 05:33:11;;;;;;;54.95;35.53;;;14.50;99.90;;;;;;4996301;28;20026;-86
2021/09/18 05:35:36;;;;;;;49.47;34.38;;;14.60;99.90;;;;;;4995890;28;20022;-87
2021/09/18 05:38:05;;;;;;;54.63;35.63;;;14.60;99.90;;;;;;5013905;28;20030;-87
2021/09/18 05:40:31;;;;;;;52.75;35.40;;;14.60;99.90;;;;;;5013155;28;20060;-86
2021/09/18 05:42:56;;;;;;;51.65;35.40;;;14.60;99.90;;;;;;4996479;28;20030;-87
2021/09/18 05:45:22;;;;;;;51.15;34.38;;;14.60;99.90;;;;;;4996096;28;20037;-87
2021/09/18 05:47:48;;;;;;;50.13;33.88;;;14.60;99.90;;;;;;5041535;23;20045;-86
2021/09/18 05:50:13;;;;;;;50.30;33.95;;;14.60;99.90;;;;;;5034595;28;20032;-87
2021/09/18 05:52:39;;;;;;;55.60;34.97;;;14.60;99.90;;;;;;5035554;28;20029;-89
2021/09/18 05:55:06;;;;;;;52.45;34.60;;;14.60;99.90;;;;;;5035480;28;20086;-89
2021/09/18 05:57:32;;;;;;;48.92;34.20;;;14.60;99.90;;;;;;5035819;28;20025;-86
2021/09/18 05:59:57;;;;;;;57.08;36.80;;;14.60;99.90;;;;;;5052884;28;20530;-88
2021/09/18 06:02:23;;;;;;;53.92;36.33;;;14.60;99.90;;;;;;5035535;28;20021;-87
2021/09/18 06:04:50;;;;;;;57.85;36.97;;;14.60;99.90;;;;;;5034869;28;20025;-87
2021/09/18 06:07:15;;;;;;;50.22;34.92;;;14.70;99.90;;;;;;5035445;28;20053;-88
2021/09/18 06:09:41;;;;;;;52.42;35.28;;;14.70;99.90;;;;;;5052764;28;20056;-87
2021/09/18 06:12:07;;;;;;;49.88;32.97;;;14.70;99.90;;;;;;5035676;28;20185;-87
2021/09/18 06:14:33;;;;;;;53.22;35.65;;;14.70;99.90;;;;;;5035227;28;20021;-89
2021/09/18 06:16:58;;;;;;;54.08;35.53;;;14.80;99.90;;;;;;5035451;28;20032;-88
2021/09/18 06:19:24;;;;;;;53.10;35.40;;;14.80;99.90;;;;;;5034644;28;20556;-88
2021/09/18 06:21:50;;;;;;;55.58;37.08;;;14.90;99.90;;;;;;5035420;28;20028;-89
2021/09/18 06:24:17;;;;;;;52.28;34.97;;;14.90;99.90;;;;;;5034750;28;20021;-87
2021/09/18 06:26:45;;;;;;;55.45;36.55;;;14.90;99.90;;;;;;5035658;28;20450;-89
2021/09/18 06:29:11;;;;;;;51.53;35.80;;;15.00;99.90;;;;;;5035073;28;20028;-91
2021/09/18 06:31:37;;;;;;;53.75;36.75;;;15.00;99.90;;;;;;5035637;28;20098;-89
2021/09/18 06:34:04;;;;;;;56.88;37.03;;;15.00;99.90;;;;;;5035340;28;20032;-90
2021/09/18 06:36:30;;;;;;;42.95;30.00;;;15.10;99.90;;;;;;5036609;28;20493;-89
2021/09/18 06:38:55;;;;;;;54.40;36.70;;;15.10;99.90;;;;;;5034861;28;20056;-89
2021/09/18 06:41:21;;;;;;;51.55;35.05;;;15.20;99.90;;;;;;5035954;28;20053;-89
2021/09/18 06:43:48;;;;;;;53.35;35.13;;;15.20;99.90;;;;;;5031737;28;20044;-88
2021/09/18 06:46:14;;;;;;;56.53;37.30;;;15.20;99.90;;;;;;5031930;28;20029;-87
2021/09/18 06:48:40;;;;;;;53.78;37.05;;;15.20;99.90;;;;;;5032983;28;20116;-88
2021/09/18 06:51:06;;;;;;;51.58;35.30;;;15.30;99.90;;;;;;5031424;28;20493;-88
2021/09/18 06:53:31;;;;;;;52.38;36.22;;;15.40;99.90;;;;;;5031317;28;20032;-88
2021/09/18 06:55:57;;;;;;;48.03;33.50;;;15.40;99.90;;;;;;5033580;28;20022;-85
2021/09/18 06:58:23;;;;;;;53.15;35.92;;;15.40;99.90;;;;;;5032166;28;20102;-86
2021/09/18 07:00:48;;;;;;;50.00;34.92;;;15.50;99.90;;;;;;5031557;28;20029;-86
2021/09/18 07:03:17;;;;;;;58.83;37.30;;;15.50;99.90;;;;;;5014611;28;20025;-86
2021/09/18 07:05:43;;;;;;;49.67;34.40;;;15.50;99.90;;;;;;5028852;28;20033;-87
2021/09/18 07:08:09;;;;;;;48.90;33.28;;;15.60;99.90;;;;;;5031106;28;20049;-86
2021/09/18 07:10:35;;;;;;;50.30;35.83;;;15.60;99.90;;;;;;5031430;28;20429;-87
2021/09/18 07:13:01;;;;;;;49.95;34.78;;;15.70;99.90;;;;;;5030088;28;20013;-85
2021/09/18 07:15:26;;;;;;;44.80;32.42;;;15.70;99.90;;;;;;5030666;28;20055;-86
2021/09/18 07:17:53;;;;;;;49.25;33.25;;;15.80;99.90;;;;;;5030607;28;20018;-86
2021/09/18 07:20:18;;;;;;;49.00;32.75;;;15.80;99.90;;;;;;5029574;28;20025;-86
2021/09/18 07:22:44;;;;;;;42.08;29.73;;;15.80;99.90;;;;;;5031880;28;20021;-87
2021/09/18 07:25:11;;;;;;;44.60;30.88;;;15.90;99.90;;;;;;5030806;28;20025;-87
2021/09/18 07:27:37;;;;;;;41.55;29.67;;;16.00;99.90;;;;;;5030980;28;20021;-86
2021/09/18 07:30:03;;;;;;;43.38;30.88;;;16.10;99.90;;;;;;5030403;28;20033;-86
2021/09/18 07:32:29;;;;;;;41.55;28.73;;;16.10;99.90;;;;;;5031559;28;20048;-86
2021/09/18 07:34:55;;;;;;;40.03;29.30;;;16.20;99.90;;;;;;5031768;28;20478;-85
2021/09/18 07:37:20;;;;;;;38.92;28.80;;;16.20;99.90;;;;;;5030378;28;20474;-84
2021/09/18 07:39:47;;;;;;;40.42;28.35;;;16.30;99.90;;;;;;5031224;28;20389;-86
2021/09/18 07:42:12;;;;;;;40.00;28.52;;;16.30;99.90;;;;;;5029654;28;20025;-86
2021/09/18 07:44:38;;;;;;;36.88;26.95;;;16.30;99.90;;;;;;5031642;28;20409;-86
2021/09/18 07:47:04;;;;;;;38.50;27.40;;;16.30;99.90;;;;;;5030763;28;20409;-85
2021/09/18 07:49:30;;;;;;;38.67;27.60;;;16.40;99.90;;;;;;5012519;28;20396;-85
2021/09/18 07:51:55;;;;;;;34.63;26.20;;;16.40;99.90;;;;;;5029481;28;20022;-85
2021/09/18 07:54:21;;;;;;;40.75;29.02;;;16.40;99.90;;;;;;5031420;28;20056;-85
2021/09/18 07:56:47;;;;;;;43.10;30.00;;;16.50;99.90;;;;;;5031339;28;20468;-85
2021/09/18 07:59:13;;;;;;;41.63;28.55;;;16.50;99.90;;;;;;5032451;28;20091;-85
2021/09/18 08:01:39;;;;;;;36.40;28.30;;;16.50;99.90;;;;;;5031881;28;20029;-84
2021/09/18 08:04:05;;;;;;;39.35;27.83;;;16.50;99.90;;;;;;5033343;28;20064;-85
2021/09/18 08:06:33;;;;;;;37.03;28.08;;;16.50;99.90;;;;;;5032059;28;20021;-85
2021/09/18 08:09:00;;;;;;;41.63;28.75;;;16.60;99.90;;;;;;5031398;28;20030;-85
2021/09/18 08:11:26;;;;;;;40.13;28.35;;;16.60;99.90;;;;;;5031443;28;20025;-85
2021/09/18 08:13:53;;;;;;;39.85;28.27;;;16.60;99.90;;;;;;5016092;28;20071;-85
2021/09/18 08:16:21;;;;;;;36.25;26.05;;;16.70;99.90;;;;;;5032403;28;20437;-85
2021/09/18 08:18:46;;;;;;;39.50;27.55;;;16.70;99.90;;;;;;5032279;28;20037;-85
2021/09/18 08:21:12;;;;;;;37.67;26.35;;;16.70;99.90;;;;;;5031490;28;20029;-85
2021/09/18 08:23:38;;;;;;;38.00;28.27;;;16.80;99.90;;;;;;5035380;28;20029;-85
2021/09/18 08:26:05;;;;;;;39.05;28.85;;;16.80;99.90;;;;;;5034495;28;20022;-85
2021/09/18 08:28:31;;;;;;;42.53;29.45;;;16.80;99.90;;;;;;5034598;28;20084;-85
2021/09/18 08:30:57;;;;;;;44.67;31.30;;;16.90;99.90;;;;;;5033510;28;20481;-85
2021/09/18 08:33:22;;;;;;;46.75;32.80;;;16.90;99.90;;;;;;5033775;28;20032;-85
2021/09/18 08:35:48;;;;;;;38.90;29.50;;;16.90;99.90;;;;;;5033429;28;20120;-85
2021/09/18 08:38:14;;;;;;;42.08;28.90;;;16.90;99.90;;;;;;5032523;28;20443;-85
2021/09/18 08:40:40;;;;;;;37.40;26.75;;;16.90;99.90;;;;;;5014714;28;20371;-85
2021/09/18 08:43:07;;;;;;;38.38;26.52;;;16.90;99.90;;;;;;5015608;28;20444;-85
2021/09/18 08:45:33;;;;;;;48.05;33.53;;;17.00;99.90;;;;;;5032157;28;20025;-85
2021/09/18 08:48:03;;;;;;;45.45;31.15;;;17.00;99.90;;;;;;5032269;28;20386;-85
2021/09/18 08:50:30;;;;;;;43.88;30.48;;;17.10;99.90;;;;;;5032066;28;20030;-85
2021/09/18 08:52:56;;;;;;;39.20;28.20;;;17.10;99.90;;;;;;5032107;28;20022;-85
2021/09/18 08:55:22;;;;;;;43.03;28.98;;;17.10;99.90;;;;;;5032632;28;20112;-85
2021/09/18 08:57:48;;;;;;;38.85;27.15;;;17.20;99.90;;;;;;5032064;28;20017;-85
2021/09/18 09:00:32;;;;;;;40.08;27.35;;;17.20;99.90;;;;;;5031381;28;20556;-85
2021/09/18 09:03:03;;;;;;;51.00;36.45;;;17.20;99.90;;;;;;5031648;28;20394;-86
2021/09/18 09:05:31;;;;;;;51.67;34.55;;;17.20;99.90;;;;;;5032198;28;20030;-85
2021/09/18 09:08:10;;;;;;;46.55;31.40;;;17.20;99.90;;;;;;5031476;28;20036;-85
2021/09/18 09:10:38;;;;;;;43.20;27.77;;;17.30;99.90;;;;;;5031420;28;20107;-85
2021/09/18 09:13:06;;;;;;;41.63;29.13;;;17.30;99.90;;;;;;5030872;28;20025;-85
2021/09/18 09:15:32;;;;;;;38.47;26.47;;;17.30;99.90;;;;;;5030874;28;20021;-85
2021/09/18 09:18:17;;;;;;;57.75;38.45;;;17.30;99.90;;;;;;5030784;28;20025;-85
2021/09/18 09:20:44;;;;;;;48.80;33.63;;;17.40;99.90;;;;;;5030205;28;20029;-85
2021/09/18 09:23:18;;;;;;;45.15;31.92;;;17.40;99.90;;;;;;5033211;28;20025;-85
2021/09/18 09:25:49;;;;;;;46.55;32.22;;;17.40;99.90;;;;;;5034380;28;20033;-85
2021/09/18 09:28:42;;;;;;;48.85;33.72;;;17.40;99.90;;;;;;5034202;28;20021;-85
2021/09/18 09:31:10;;;;;;;46.65;31.38;;;17.40;99.90;;;;;;5031954;28;20033;-85
2021/09/18 09:33:36;;;;;;;45.95;30.95;;;17.30;99.90;;;;;;5034094;28;20022;-85
2021/09/18 09:36:16;;;;;;;44.72;30.45;;;17.40;99.90;;;;;;5034088;28;20032;-85
2021/09/18 09:38:54;;;;;;;38.35;26.23;;;17.50;99.90;;;;;;5035099;28;20027;-85
2021/09/18 09:41:41;;;;;;;33.43;23.00;;;17.50;99.90;;;;;;5035225;28;20489;-85
2021/09/18 09:44:19;;;;;;;41.00;27.13;;;17.60;99.90;;;;;;5034033;28;20080;-85
2021/09/18 09:47:11;;;;;;;39.40;26.52;;;17.60;99.90;;;;;;5034105;28;20033;-85
2021/09/18 09:49:45;;;;;;;35.33;24.50;;;17.70;99.90;;;;;;5032983;28;20030;-85
2021/09/18 09:52:24;;;;;;;32.08;22.17;;;17.70;99.90;;;;;;5033633;28;20537;-85
2021/09/18 09:54:54;;;;;;;33.60;23.35;;;17.70;99.90;;;;;;5033862;28;20018;-85
2021/09/18 09:57:21;;;;;;;37.05;24.80;;;17.70;99.90;;;;;;5033633;28;20500;-85
2021/09/18 09:59:47;;;;;;;34.35;23.50;;;17.80;99.90;;;;;;5033154;28;20036;-85
2021/09/18 10:02:14;;;;;;;30.50;20.85;;;17.80;99.90;;;;;;5033421;28;20049;-85
2021/09/18 10:04:40;;;;;;;30.17;21.25;;;17.90;99.90;;;;;;5033460;28;20025;-85
2021/09/18 10:07:06;;;;;;;32.72;22.13;;;17.90;99.90;;;;;;5033449;28;20092;-85
2021/09/18 10:09:35;;;;;;;30.88;22.30;;;17.90;99.90;;;;;;5034129;28;20036;-85
2021/09/18 10:12:00;;;;;;;26.95;19.75;;;18.00;99.90;;;;;;5034732;28;20049;-85
2021/09/18 10:14:28;;;;;;;30.52;21.98;;;18.00;99.90;;;;;;5034703;28;20079;-85
2021/09/18 10:16:57;;;;;;;29.17;20.35;;;18.10;99.90;;;;;;5033594;28;20393;-85
2021/09/18 10:19:41;;;;;;;32.60;21.70;;;18.20;99.90;;;;;;5033398;28;20029;-85
2021/09/18 10:24:55;;;;;;;33.25;22.98;;;18.30;99.90;;;;;;5038756;28;20113;-85
2021/09/18 10:27:26;;;;;;;27.95;19.00;;;18.30;99.90;;;;;;5036289;28;20055;-85
2021/09/18 10:29:52;;;;;;;26.00;17.55;;;18.40;99.90;;;;;;5035660;28;20398;-85
2021/09/18 10:32:19;;;;;;;27.27;17.38;;;18.40;99.90;;;;;;5033191;28;20074;-85
2021/09/18 10:34:45;;;;;;;27.73;20.17;;;18.50;99.90;;;;;;5034129;28;20026;-85
2021/09/18 10:37:34;;;;;;;26.88;19.15;;;18.50;99.90;;;;;;5032927;28;20505;-86
2021/09/18 10:40:09;;;;;;;30.52;20.92;;;18.50;99.90;;;;;;5032433;28;20029;-85
2021/09/18 10:42:38;;;;;;;25.88;18.67;;;18.60;99.90;;;;;;5032950;28;20052;-86
2021/09/18 10:45:06;;;;;;;27.23;20.10;;;18.50;99.90;;;;;;5033018;28;20168;-85
2021/09/18 10:47:40;;;;;;;26.08;17.52;;;18.60;99.90;;;;;;5032749;28;20034;-85
2021/09/18 10:50:26;;;;;;;31.73;23.33;;;18.60;99.90;;;;;;5032121;28;20510;-85
2021/09/18 10:53:12;;;;;;;25.77;18.67;;;18.70;99.90;;;;;;5032629;28;20036;-85
2021/09/18 10:56:01;;;;;;;25.98;17.88;;;18.80;99.90;;;;;;5032597;28;20367;-86
2021/09/18 10:58:27;;;;;;;19.15;13.25;;;18.70;99.90;;;;;;5033945;28;20083;-86
2021/09/18 11:00:56;;;;;;;22.10;15.10;;;18.70;99.90;;;;;;5015415;28;20026;-85
2021/09/18 11:03:46;;;;;;;19.95;13.73;;;18.70;99.90;;;;;;5032721;28;20497;-85
2021/09/18 11:06:38;;;;;;;24.40;15.65;;;18.70;99.90;;;;;;5032409;28;20075;-85
2021/09/18 11:09:04;;;;;;;24.65;15.88;;;18.60;99.90;;;;;;5031517;28;20040;-85
2021/09/18 11:11:30;;;;;;;25.15;16.85;;;18.60;99.90;;;;;;5032097;28;20032;-85
2021/09/18 11:13:56;;;;;;;22.02;14.95;;;18.70;99.90;;;;;;5032114;28;20022;-85
2021/09/18 11:16:37;;;;;;;25.83;18.17;;;18.70;99.90;;;;;;5033341;28;20060;-85
2021/09/18 11:19:10;;;;;;;28.63;19.08;;;18.80;99.90;;;;;;5031277;28;20078;-85
2021/09/18 11:21:40;;;;;;;20.48;14.80;;;18.80;99.90;;;;;;5032128;28;20029;-85
2021/09/18 11:24:15;;;;;;;23.45;15.82;;;18.80;99.90;;;;;;5031905;28;20116;-85
2021/09/18 11:26:45;;;;;;;25.75;17.63;;;18.90;99.90;;;;;;5031775;28;20068;-85
2021/09/18 11:29:29;;;;;;;21.88;15.85;;;18.90;99.50;;;;;;5031356;28;20025;-85
2021/09/18 11:32:10;;;;;;;22.98;16.67;;;18.90;99.80;;;;;;5033942;28;20371;-86
2021/09/18 11:34:51;;;;;;;21.67;14.93;;;18.90;99.90;;;;;;5034554;28;20540;-86
2021/09/18 11:37:24;;;;;;;19.63;14.35;;;18.90;99.90;;;;;;5035720;28;20029;-85
2021/09/18 11:39:55;;;;;;;25.02;15.15;;;18.80;99.90;;;;;;5033814;28;20021;-85
2021/09/18 11:42:24;;;;;;;23.65;17.15;;;18.70;99.90;;;;;;5034325;28;20490;-85
2021/09/18 11:44:52;;;;;;;21.63;16.08;;;18.70;99.90;;;;;;5033390;28;20041;-85
2021/09/18 11:47:33;;;;;;;26.73;18.48;;;18.70;99.90;;;;;;5065621;23;20056;-85
2021/09/18 11:50:00;;;;;;;23.00;15.95;;;18.70;99.90;;;;;;5053904;28;20040;-86
2021/09/18 11:52:40;;;;;;;17.77;12.90;;;18.70;99.50;;;;;;5054211;28;20024;-86
2021/09/18 11:55:07;;;;;;;15.82;11.18;;;18.80;99.40;;;;;;5054414;28;20044;-86
2021/09/18 11:57:33;;;;;;;13.60;10.27;;;18.70;99.10;;;;;;5054146;28;20031;-85
2021/09/18 12:00:12;;;;;;;15.90;11.85;;;18.80;99.30;;;;;;5053558;28;20029;-86
2021/09/18 12:02:38;;;;;;;15.35;11.07;;;18.80;99.90;;;;;;5054336;28;20107;-86
2021/09/18 12:05:04;;;;;;;18.40;13.82;;;18.80;99.80;;;;;;5054416;28;20132;-86
2021/09/18 12:07:30;;;;;;;18.92;13.00;;;19.00;99.90;;;;;;5054137;28;20029;-86
2021/09/18 12:09:56;;;;;;;18.50;12.23;;;19.00;99.90;;;;;;5071482;28;20036;-86
2021/09/18 12:12:27;;;;;;;18.48;12.13;;;19.10;99.60;;;;;;5053904;28;20021;-86
2021/09/18 12:14:53;;;;;;;20.25;14.02;;;19.10;99.40;;;;;;5072038;28;20095;-87
2021/09/18 12:17:20;;;;;;;21.50;14.63;;;19.20;98.70;;;;;;5053940;28;20028;-86
2021/09/18 12:19:47;;;;;;;20.60;12.18;;;19.40;98.40;;;;;;5071611;28;20056;-87
2021/09/18 12:22:14;;;;;;;16.83;10.90;;;19.40;98.60;;;;;;5053902;28;20542;-86
2021/09/18 12:24:44;;;;;;;16.25;10.30;;;19.40;99.00;;;;;;5054335;28;20024;-86
2021/09/18 12:27:23;;;;;;;14.30;9.90;;;19.30;98.40;;;;;;5054028;28;20032;-86
2021/09/18 12:30:15;;;;;;;14.90;9.77;;;19.40;98.10;;;;;;5071274;28;20032;-86
2021/09/18 12:32:41;;;;;;;11.85;8.25;;;19.30;96.80;;;;;;5051622;28;20322;-87
2021/09/18 12:35:09;;;;;;;10.32;7.85;;;19.40;97.10;;;;;;5053962;28;20048;-86